首页
METAR-TAF:

METAR-TAF

机场 :

内利斯空军基地

Nellis, 内华达州, 美国

纬度: 36-14N, 经度: 115-02W, 海拔: 570米

当前天气观测

该预报发布于1小时和7分钟前的10:58 UTC
风速3节,风向西
温度 5°C
湿度 100%
气压 1023 hPa
能見度: 16.1公里
天空无云

METAR: KLSV 111058Z AUTO 28003KT 10SM CLR 05/05 A3022 RMK AO2 SLP233 T00500050 $

时间: 04:05 (12:05 UTC)

预报

该预报发布于5小时和5分钟前的07:00 UTC
预报有效从11日的 07点(UTC)到 12日的 13点(UTC)
风速6节,风向多变
能见度10公里或以上
多云层高于20000英尺
成为
从 11日的 17点(UTC)到 11日的 18点(UTC)
风速6节,风向多变
能见度10公里或以上
散云层高于20000英尺
成为
从 12日的 03点(UTC)到 12日的 04点(UTC)
风速6节,风向西转西北
能见度10公里或以上
少量云层高于20000英尺

TAF: KLSV 110700Z 1107/1213 VRB06KT 9999 BKN200 QNH3023INS BECMG 1117/1118 VRB06KT 9999 SCT200 QNH3017INS BECMG 1203/1204 30006KT 9999 FEW200 QNH3020INS TX14/1121Z TN04/1114Z

超过4000个机场的气象观测和天气预报(METAR&TAF报告)。

可查询的气象台以黄色和红色小点在地图上表示。

将鼠标移到小点上方,可查看气象台名称。

然后点击查看天气观测和预报。

如需切换地图:点击带黑十字的绿色按钮放大地图;点击带横线的绿色按钮缩小地图;或者点击绿色箭头查看邻近地区的地图。


METAR-TAF: